createdAt,value
2022-10-02T00:00:00.031Z,100284.94
2022-10-02T00:03:12.052Z,100298.44
2022-10-02T00:06:22.661Z,100297.63
2022-10-02T00:09:39.618Z,100305.06
2022-10-02T00:12:43.321Z,100308.97
2022-10-02T00:15:47.740Z,100311.69
2022-10-02T00:18:51.752Z,100311.44
2022-10-02T00:22:17.613Z,100320.00
2022-10-02T00:25:29.187Z,100301.00
2022-10-02T00:28:37.453Z,100318.91
2022-10-02T00:31:50.430Z,100320.81
2022-10-02T00:35:42.291Z,100324.47
2022-10-02T00:38:59.827Z,100324.75
2022-10-02T00:42:50.857Z,100322.13
2022-10-02T00:46:16.523Z,100323.56
2022-10-02T00:49:37.053Z,100324.72
2022-10-02T00:53:00.290Z,100343.66
2022-10-02T00:56:22.388Z,100340.59
2022-10-02T00:59:55.760Z,100348.88
2022-10-02T01:03:19.043Z,100357.66
2022-10-02T01:06:26.777Z,100359.56
2022-10-02T01:09:29.811Z,100363.56
2022-10-02T01:12:32.857Z,100366.44
2022-10-02T01:15:41.476Z,100371.66
2022-10-02T01:18:48.001Z,100376.19
2022-10-02T01:21:59.484Z,100378.06
2022-10-02T01:25:07.543Z,100394.06
2022-10-02T01:28:11.739Z,100383.75
2022-10-02T01:31:16.123Z,100392.31
2022-10-02T01:34:19.433Z,100396.47
2022-10-02T01:37:25.593Z,100404.63
2022-10-02T01:40:33.327Z,100405.25
2022-10-02T01:43:39.343Z,100406.63
2022-10-02T01:46:54.591Z,100414.00
2022-10-02T01:50:10.791Z,100425.38
2022-10-02T01:53:24.462Z,100427.03
2022-10-02T01:56:40.847Z,100424.31
2022-10-02T01:59:53.901Z,100415.06
2022-10-02T02:03:06.611Z,100413.28
2022-10-02T02:06:16.103Z,100410.34
2022-10-02T02:09:30.470Z,100407.72
2022-10-02T02:12:43.734Z,100408.69
2022-10-02T02:15:55.483Z,100416.72
2022-10-02T02:19:05.005Z,100426.56
2022-10-02T02:22:16.754Z,100417.00
2022-10-02T02:25:22.921Z,100430.13
2022-10-02T02:28:28.858Z,100428.25
2022-10-02T02:31:39.126Z,100427.41
2022-10-02T02:34:47.673Z,100433.66
2022-10-02T02:37:52.708Z,100429.63
2022-10-02T02:41:00.981Z,100434.03
2022-10-02T02:44:12.278Z,100436.63
2022-10-02T02:47:22.467Z,100440.19
2022-10-02T02:50:31.546Z,100436.63
2022-10-02T02:53:39.579Z,100443.25
2022-10-02T02:56:45.022Z,100445.88
2022-10-02T02:59:52.541Z,100441.22
2022-10-02T03:02:55.635Z,100442.63
2022-10-02T03:06:06.002Z,100445.25
2022-10-02T03:09:14.791Z,100440.75
2022-10-02T03:12:29.710Z,100434.59
2022-10-02T03:15:48.437Z,100432.31
2022-10-02T03:19:11.844Z,100433.28
2022-10-02T03:22:24.879Z,100431.34
2022-10-02T03:25:34.542Z,100437.50
2022-10-02T03:28:55.423Z,100434.44
2022-10-02T03:32:01.411Z,100429.22
2022-10-02T03:35:08.326Z,100430.19
2022-10-02T03:38:14.663Z,100434.66
2022-10-02T03:41:17.981Z,100435.72
2022-10-02T03:44:21.065Z,100446.97
2022-10-02T03:47:25.419Z,100431.59
2022-10-02T03:50:30.753Z,100439.16
2022-10-02T03:53:36.306Z,100442.59
2022-10-02T03:56:47.652Z,100435.22
2022-10-02T04:00:01.546Z,100436.31
2022-10-02T04:03:12.164Z,100435.34
2022-10-02T04:06:20.521Z,100434.03
2022-10-02T04:09:30.594Z,100430.28
2022-10-02T04:12:40.127Z,100436.41
2022-10-02T04:15:57.833Z,100438.16
2022-10-02T04:19:08.400Z,100423.75
2022-10-02T04:22:23.635Z,100426.22
2022-10-02T04:25:31.253Z,100423.63
2022-10-02T04:28:41.231Z,100434.88
2022-10-02T04:31:45.582Z,100434.88
2022-10-02T04:34:49.970Z,100435.34
2022-10-02T04:38:24.855Z,100442.84
2022-10-02T04:41:58.505Z,100439.16
2022-10-02T04:45:20.005Z,100441.41
2022-10-02T04:49:11.830Z,100452.44
2022-10-02T04:52:32.816Z,100448.78
2022-10-02T04:55:53.056Z,100459.69
2022-10-02T04:59:20.612Z,100456.00
2022-10-02T05:02:38.126Z,100458.25
2022-10-02T05:06:05.351Z,100478.06
2022-10-02T05:09:17.364Z,100472.59
2022-10-02T05:12:40.228Z,100470.59
2022-10-02T05:16:03.657Z,100467.19
2022-10-02T05:19:33.732Z,100475.94
2022-10-02T05:23:16.132Z,100471.78
2022-10-02T05:26:46.511Z,100476.66
2022-10-02T05:30:07.212Z,100473.81
2022-10-02T05:33:58.290Z,100477.72
2022-10-02T05:37:23.719Z,100483.84
2022-10-02T05:40:33.308Z,100485.41
2022-10-02T05:43:47.586Z,100485.53
2022-10-02T05:46:58.643Z,100484.25
2022-10-02T05:50:10.952Z,100478.09
2022-10-02T05:53:24.940Z,100484.59
2022-10-02T05:56:37.160Z,100486.03
2022-10-02T05:59:49.627Z,100496.00
2022-10-02T06:03:04.387Z,100507.63
2022-10-02T06:06:13.689Z,100517.56
2022-10-02T06:09:21.398Z,100501.81
2022-10-02T06:12:31.739Z,100505.28
2022-10-02T06:15:44.258Z,100507.16
2022-10-02T06:18:52.321Z,100502.66
2022-10-02T06:22:02.704Z,100507.03
2022-10-02T06:25:15.184Z,100495.91
2022-10-02T06:28:25.300Z,100496.03
2022-10-02T06:31:40.016Z,100487.25
2022-10-02T06:34:47.661Z,100475.72
2022-10-02T06:38:07.823Z,100476.19
2022-10-02T06:41:20.551Z,100481.31
2022-10-02T06:44:33.113Z,100484.63
2022-10-02T06:47:58.430Z,100480.97
2022-10-02T06:51:12.197Z,100483.81
2022-10-02T06:54:33.052Z,100491.16
2022-10-02T06:57:54.449Z,100491.38
2022-10-02T07:01:06.861Z,100488.53
2022-10-02T07:04:45.939Z,100482.28
2022-10-02T07:08:00.375Z,100480.97
2022-10-02T07:11:13.346Z,100496.00
2022-10-02T07:14:41.914Z,100494.47
2022-10-02T07:17:57.276Z,100494.72
2022-10-02T07:21:11.039Z,100492.34
2022-10-02T07:24:36.799Z,100496.84
2022-10-02T07:27:49.573Z,100510.00
2022-10-02T07:30:59.692Z,100512.16
2022-10-02T07:34:17.320Z,100518.66
2022-10-02T07:37:37.965Z,100511.84
2022-10-02T07:40:55.155Z,100527.41
2022-10-02T07:44:14.496Z,100530.66
2022-10-02T07:47:35.595Z,100530.41
2022-10-02T07:50:54.183Z,100542.91
2022-10-02T07:54:13.191Z,100545.66
2022-10-02T07:57:30.153Z,100574.88
2022-10-02T08:00:39.734Z,100581.00
2022-10-02T08:03:49.753Z,100590.97
2022-10-02T08:07:01.651Z,100608.31
2022-10-02T08:10:11.195Z,100634.34
2022-10-02T08:13:20.462Z,100632.28
2022-10-02T08:16:27.419Z,100632.41
2022-10-02T08:19:39.265Z,100637.66
2022-10-02T08:22:47.643Z,100636.91
2022-10-02T08:26:00.518Z,100640.84
2022-10-02T08:29:07.931Z,100655.50
2022-10-02T08:32:12.638Z,100667.38
2022-10-02T08:35:19.516Z,100652.78
2022-10-02T08:38:42.652Z,100661.78
2022-10-02T08:42:39.381Z,100657.16
2022-10-02T08:46:40.579Z,100668.84
2022-10-02T08:50:30.166Z,100654.53
2022-10-02T08:54:13.963Z,100665.34
2022-10-02T08:57:43.935Z,100668.41
2022-10-02T09:00:59.771Z,100678.91
2022-10-02T09:04:40.635Z,100681.25
2022-10-02T09:08:26.247Z,100681.69
2022-10-02T09:12:02.884Z,100677.25
2022-10-02T09:15:17.650Z,100679.50
2022-10-02T09:18:45.428Z,100700.88
2022-10-02T09:21:55.974Z,100686.41
2022-10-02T09:25:30.245Z,100691.34
2022-10-02T09:29:42.184Z,100699.38
2022-10-02T09:33:30.222Z,100695.09
2022-10-02T09:37:16.866Z,100682.25
2022-10-02T09:41:00.106Z,100704.06
2022-10-02T09:44:46.192Z,100689.38
2022-10-02T09:48:45.408Z,100677.00
2022-10-02T09:52:42.814Z,100664.84
2022-10-02T09:56:30.989Z,100655.44
2022-10-02T09:59:52.268Z,100671.97
2022-10-02T10:03:36.391Z,100678.22
2022-10-02T10:07:08.475Z,100687.69
2022-10-02T10:10:30.750Z,100692.66
2022-10-02T10:14:06.731Z,100689.97
2022-10-02T10:17:56.678Z,100679.06
2022-10-02T10:21:31.796Z,100683.34
2022-10-02T10:25:28.206Z,100685.56
2022-10-02T10:29:15.057Z,100667.34
2022-10-02T10:33:09.119Z,100655.19
2022-10-02T10:37:13.464Z,100647.56
2022-10-02T10:40:38.217Z,100666.75
2022-10-02T10:44:13.164Z,100653.25
2022-10-02T10:47:48.131Z,100681.59
2022-10-02T10:51:01.400Z,100698.72
2022-10-02T10:54:48.533Z,100705.56
2022-10-02T10:58:14.887Z,100696.56
2022-10-02T11:01:20.906Z,100689.78
2022-10-02T11:04:52.704Z,100645.59
2022-10-02T11:08:18.301Z,100604.34
2022-10-02T11:11:28.707Z,100583.81
2022-10-02T11:14:50.232Z,100586.03
2022-10-02T11:18:24.802Z,100582.72
2022-10-02T11:21:59.372Z,100620.91
2022-10-02T11:25:28.413Z,100611.75
2022-10-02T11:28:56.240Z,100638.06
2022-10-02T11:32:28.279Z,100629.78
2022-10-02T11:35:48.941Z,100606.03
2022-10-02T11:39:15.812Z,100601.81
2022-10-02T11:43:00.551Z,100601.34
2022-10-02T11:46:33.488Z,100613.72
2022-10-02T11:50:24.238Z,100637.38
2022-10-02T11:54:09.323Z,100635.69
2022-10-02T11:57:23.722Z,100632.28
2022-10-02T12:01:05.830Z,100679.69
2022-10-02T12:04:31.929Z,100685.69
2022-10-02T12:07:44.206Z,100672.50
2022-10-02T12:10:55.897Z,100671.06
2022-10-02T12:14:12.896Z,100684.22
2022-10-02T12:17:42.780Z,100684.22
2022-10-02T12:21:23.029Z,100695.72
2022-10-02T12:24:57.543Z,100705.91
2022-10-02T12:28:12.315Z,100709.88
2022-10-02T12:31:25.054Z,100717.16
2022-10-02T12:34:42.435Z,100732.53
2022-10-02T12:37:57.706Z,100723.13
2022-10-02T12:41:08.941Z,100721.06
2022-10-02T12:44:40.946Z,100720.25
2022-10-02T12:48:00.620Z,100718.34
2022-10-02T12:51:35.628Z,100716.34
2022-10-02T12:55:11.391Z,100720.50
2022-10-02T12:58:24.735Z,100713.41
2022-10-02T13:02:18.937Z,100722.03
2022-10-02T13:06:06.860Z,100726.22
2022-10-02T13:09:29.972Z,100725.81
2022-10-02T13:12:54.032Z,100732.97
2022-10-02T13:16:05.532Z,100717.44
2022-10-02T13:19:23.820Z,100725.31
2022-10-02T13:22:37.849Z,100727.66
2022-10-02T13:25:57.798Z,100726.16
2022-10-02T13:29:26.498Z,100729.34
2022-10-02T13:32:55.043Z,100726.44
2022-10-02T13:36:18.056Z,100716.63
2022-10-02T13:39:54.863Z,100715.94
2022-10-02T13:43:34.941Z,100710.97
2022-10-02T13:47:03.660Z,100724.78
2022-10-02T13:50:38.082Z,100727.72
2022-10-02T13:54:12.783Z,100727.97
2022-10-02T13:57:37.057Z,100713.59
2022-10-02T14:00:59.801Z,100721.91
2022-10-02T14:04:29.588Z,100720.00
2022-10-02T14:08:03.667Z,100722.13
2022-10-02T14:11:17.279Z,100718.59
2022-10-02T14:14:42.183Z,100719.75
2022-10-02T14:18:10.619Z,100730.09
2022-10-02T14:21:26.752Z,100734.94
2022-10-02T14:25:04.116Z,100735.38
2022-10-02T14:28:35.663Z,100745.25
2022-10-02T14:32:06.460Z,100748.09
2022-10-02T14:35:41.028Z,100768.50
2022-10-02T14:39:05.080Z,100770.91
2022-10-02T14:42:32.637Z,100761.47
2022-10-02T14:46:02.958Z,100764.19
2022-10-02T14:49:55.868Z,100767.06
2022-10-02T14:53:27.420Z,100762.84
2022-10-02T14:57:03.327Z,100776.38
2022-10-02T15:00:19.065Z,100775.25
2022-10-02T15:04:04.766Z,100780.88
2022-10-02T15:07:12.217Z,100782.34
2022-10-02T15:10:20.484Z,100775.72
2022-10-02T15:13:38.616Z,100780.81
2022-10-02T15:17:05.175Z,100778.06
2022-10-02T15:20:22.569Z,100779.84
2022-10-02T15:23:42.433Z,100791.94
2022-10-02T15:26:51.479Z,100791.94
2022-10-02T15:30:21.543Z,100794.47
2022-10-02T15:33:33.123Z,100792.25
2022-10-02T15:37:07.249Z,100791.00
2022-10-02T15:40:30.594Z,100803.31
2022-10-02T15:43:51.295Z,100806.75
2022-10-02T15:47:07.020Z,100791.28
2022-10-02T15:50:25.856Z,100794.75
2022-10-02T15:53:46.303Z,100807.72
2022-10-02T15:57:18.151Z,100806.56
2022-10-02T16:00:22.935Z,100804.09
2022-10-02T16:03:38.138Z,100815.81
2022-10-02T16:07:21.034Z,100820.38
2022-10-02T16:10:27.621Z,100817.84
2022-10-02T16:13:47.452Z,100823.91
2022-10-02T16:17:45.427Z,100822.53
2022-10-02T16:21:15.583Z,100819.06
2022-10-02T16:24:53.070Z,100820.94
2022-10-02T16:28:10.647Z,100822.16
2022-10-02T16:31:36.384Z,100817.72
2022-10-02T16:34:51.858Z,100822.91
2022-10-02T16:38:00.919Z,100816.16
2022-10-02T16:41:20.804Z,100820.56
2022-10-02T16:44:40.289Z,100833.41
2022-10-02T16:47:49.899Z,100835.91
2022-10-02T16:51:13.099Z,100835.59
2022-10-02T16:54:24.395Z,100845.25
2022-10-02T16:57:52.604Z,100845.13
2022-10-02T17:00:59.401Z,100839.41
2022-10-02T17:04:44.201Z,100849.88
2022-10-02T17:07:58.904Z,100840.88
2022-10-02T17:11:18.303Z,100834.13
2022-10-02T17:14:28.659Z,100833.09
2022-10-02T17:17:54.942Z,100833.69
2022-10-02T17:21:03.875Z,100840.03
2022-10-02T17:24:25.899Z,100843.06
2022-10-02T17:27:45.605Z,100833.53
2022-10-02T17:31:20.010Z,100833.53
2022-10-02T17:34:25.775Z,100831.16
2022-10-02T17:38:14.963Z,100834.13
2022-10-02T17:41:42.349Z,100842.50
2022-10-02T17:44:56.737Z,100846.75
2022-10-02T17:48:38.716Z,100835.16
2022-10-02T17:51:53.459Z,100839.44
2022-10-02T17:55:43.835Z,100846.94
2022-10-02T17:58:58.765Z,100842.66
2022-10-02T18:02:14.762Z,100852.53
2022-10-02T18:05:30.138Z,100856.22
2022-10-02T18:09:04.500Z,100854.59
2022-10-02T18:12:51.760Z,100846.03
2022-10-02T18:16:22.170Z,100852.91
2022-10-02T18:19:36.543Z,100860.75
2022-10-02T18:22:58.478Z,100851.13
2022-10-02T18:26:19.222Z,100852.91
2022-10-02T18:29:41.591Z,100851.03
2022-10-02T18:33:04.904Z,100856.50
2022-10-02T18:36:28.994Z,100852.94
2022-10-02T18:39:45.157Z,100863.28
2022-10-02T18:43:04.579Z,100860.53
2022-10-02T18:46:22.460Z,100860.41
2022-10-02T18:49:54.706Z,100863.72
2022-10-02T18:53:11.521Z,100867.91
2022-10-02T18:56:22.378Z,100874.56
2022-10-02T18:59:44.841Z,100881.69
2022-10-02T19:03:12.410Z,100897.16
2022-10-02T19:06:20.946Z,100907.13
2022-10-02T19:09:28.848Z,100906.53
2022-10-02T19:12:32.344Z,100913.69
2022-10-02T19:15:36.107Z,100917.59
2022-10-02T19:18:40.727Z,100913.41
2022-10-02T19:21:43.690Z,100908.56
2022-10-02T19:24:52.022Z,100923.78
2022-10-02T19:27:56.063Z,100927.09
2022-10-02T19:31:02.456Z,100932.31
2022-10-02T19:34:13.348Z,100922.34
2022-10-02T19:37:18.961Z,100936.50
2022-10-02T19:40:26.101Z,100935.19
2022-10-02T19:43:32.435Z,100934.31
2022-10-02T19:46:40.145Z,100936.47
2022-10-02T19:49:45.442Z,100927.53
2022-10-02T19:52:54.385Z,100932.16
2022-10-02T19:56:01.094Z,100927.75
2022-10-02T19:59:11.652Z,100930.16
2022-10-02T20:02:23.242Z,100928.34
2022-10-02T20:05:28.968Z,100922.75
2022-10-02T20:08:38.519Z,100924.63
2022-10-02T20:11:46.370Z,100923.22
2022-10-02T20:14:56.363Z,100924.13
2022-10-02T20:17:58.380Z,100930.44
2022-10-02T20:21:11.864Z,100934.31
2022-10-02T20:24:21.802Z,100950.38
2022-10-02T20:27:42.565Z,100945.97
2022-10-02T20:30:51.599Z,100958.34
2022-10-02T20:33:58.558Z,100964.00
2022-10-02T20:37:07.116Z,100970.41
2022-10-02T20:40:16.645Z,100974.91
2022-10-02T20:43:24.533Z,100968.94
2022-10-02T20:47:06.526Z,100979.41
2022-10-02T20:50:31.363Z,100968.25
2022-10-02T20:54:10.911Z,100986.41
2022-10-02T20:58:08.787Z,100992.91
2022-10-02T21:01:19.022Z,100999.63
2022-10-02T21:04:46.669Z,100997.94
2022-10-02T21:08:14.711Z,101007.34
2022-10-02T21:11:35.644Z,101004.03
2022-10-02T21:14:57.122Z,101005.69
2022-10-02T21:18:33.553Z,101010.09
2022-10-02T21:22:13.857Z,101003.03
2022-10-02T21:25:46.999Z,101006.53
2022-10-02T21:29:20.285Z,101009.41
2022-10-02T21:32:42.838Z,101007.63
2022-10-02T21:35:56.747Z,101010.94
2022-10-02T21:39:43.749Z,101013.91
2022-10-02T21:43:33.920Z,101018.16
2022-10-02T21:47:12.775Z,101018.50
2022-10-02T21:50:46.030Z,101014.31
2022-10-02T21:54:28.998Z,101017.88
2022-10-02T21:58:25.322Z,101020.91
2022-10-02T22:02:13.913Z,101016.63
2022-10-02T22:05:53.859Z,101015.94
2022-10-02T22:09:22.395Z,101014.22
2022-10-02T22:12:42.912Z,101016.63
2022-10-02T22:16:04.098Z,101014.16
2022-10-02T22:19:26.960Z,101018.75
2022-10-02T22:22:55.709Z,101020.50
2022-10-02T22:26:13.973Z,101025.03
2022-10-02T22:29:25.104Z,101027.91
2022-10-02T22:33:06.029Z,101021.22
2022-10-02T22:36:44.142Z,101023.97
2022-10-02T22:39:56.164Z,101020.59
2022-10-02T22:43:05.175Z,101018.22
2022-10-02T22:46:22.488Z,101011.44
2022-10-02T22:49:33.537Z,101014.03
2022-10-02T22:52:47.504Z,101010.06
2022-10-02T22:55:53.945Z,101004.25
2022-10-02T22:59:07.699Z,101001.84
2022-10-02T23:02:15.644Z,101006.44
2022-10-02T23:05:27.421Z,101008.84
2022-10-02T23:08:34.963Z,101007.28
2022-10-02T23:11:44.068Z,101008.13
2022-10-02T23:15:04.697Z,101007.28
2022-10-02T23:18:23.485Z,101010.63
2022-10-02T23:21:34.582Z,101007.38
2022-10-02T23:24:47.544Z,101002.38
2022-10-02T23:27:59.130Z,101005.00
2022-10-02T23:31:15.911Z,101000.81
2022-10-02T23:34:35.552Z,100997.47
2022-10-02T23:37:48.263Z,101000.81
2022-10-02T23:41:23.170Z,101009.38
2022-10-02T23:44:36.646Z,101013.41
2022-10-02T23:47:58.285Z,101010.81
2022-10-02T23:51:16.454Z,101017.50
2022-10-02T23:54:43.270Z,101012.09
2022-10-02T23:58:06.787Z,101021.78
